PWSweather.com
Personal Weather Stations
Station Observations
SYLVANIAWX
Erie St. Near Centennial Rd., Sylvania, OH 43560

Erie St. Near Centennial Rd.Sylvania, OH 43560

Lat: 41.7172065, Lon: -83.7420078

Elevation: 672

Station Type: Davis Vantage Pro2

http://www.sylvaniaweather.com

High Low Average
Temperature 47.4°F8.6°C 32.3°F0.2°C 40.1°F4.5°C
Dew Point 41.4°F5.2°C 24.9°F-3.9°C 35.0°F1.7°C
Winds 26.0 mph 41.8 kmh Calm Calm 7.0 mph SW11.3 kmh SW
Wind Gusts 33.0 mph53.1 kmh 1.0 mph1.6 kmh 14.0 mph22.5 kmh
Humidity 89% 71% 82%
Pressure 29.94 in1013.9 mb 29.56 in1001.0 mb -
Precipitation 0.00 in0.0 mm - -
Hour Temp Dew Point Humidity Winds Wind Gusts Pressure Precip Precip Rate Daily Precip Total
12:00 AM 39.3°F4.1°C 35.5°F1.9°C 86% Calm Calm 5.0 mph8.0 kmh 29.97 in1014.9 mb 0.00 in0.0 mm 0.00 in/hr0.0 mm/hr 0.00 in0.0 mm
12:05 AM 39.2°F4.0°C 35.4°F1.9°C 86% Calm Calm 14.0 mph22.5 kmh 29.97 in1014.9 mb 0.00 in0.0 mm 0.00 in/hr0.0 mm/hr 0.00 in0.0 mm
12:10 AM 39.2°F4.0°C 35.4°F1.9°C 86% 5.0 mph SSW8.0 kmh SSW 16.0 mph25.7 kmh 29.97 in1014.9 mb 0.00 in0.0 mm 0.00 in/hr0.0 mm/hr 0.00 in0.0 mm
12:15 AM 39.1°F3.9°C 35.3°F1.8°C 86% 3.0 mph S4.8 kmh S 16.0 mph25.7 kmh 29.97 in1014.9 mb 0.00 in0.0 mm 0.00 in/hr0.0 mm/hr 0.00 in0.0 mm
12:20 AM 39.1°F3.9°C 35.3°F1.8°C 86% 5.0 mph SW8.0 kmh SW 10.0 mph16.1 kmh 29.97 in1014.9 mb 0.00 in0.0 mm 0.00 in/hr0.0 mm/hr 0.00 in0.0 mm
12:25 AM 39.2°F4.0°C 35.4°F1.9°C 86% 6.0 mph S9.7 kmh S 13.0 mph20.9 kmh 29.98 in1015.2 mb 0.00 in0.0 mm 0.00 in/hr0.0 mm/hr 0.00 in0.0 mm
12:30 AM 39.2°F4.0°C 35.4°F1.9°C 86% 1.0 mph SSW1.6 kmh SSW 3.0 mph4.8 kmh 29.97 in1014.9 mb 0.00 in0.0 mm 0.00 in/hr0.0 mm/hr 0.00 in0.0 mm
12:35 AM 39.2°F4.0°C 35.4°F1.9°C 86% Calm Calm 14.0 mph22.5 kmh 29.97 in1014.9 mb 0.00 in0.0 mm 0.00 in/hr0.0 mm/hr 0.00 in0.0 mm
12:40 AM 39.3°F4.1°C 35.5°F1.9°C 86% 6.0 mph SSW9.7 kmh SSW 7.0 mph11.3 kmh 29.96 in1014.6 mb 0.00 in0.0 mm 0.00 in/hr0.0 mm/hr 0.00 in0.0 mm
12:45 AM 39.3°F4.1°C 35.5°F1.9°C 86% Calm Calm 11.0 mph17.7 kmh 29.96 in1014.6 mb 0.00 in0.0 mm 0.00 in/hr0.0 mm/hr 0.00 in0.0 mm
12:50 AM 39.3°F4.1°C 35.5°F1.9°C 86% Calm Calm 4.0 mph6.4 kmh 29.95 in1014.2 mb 0.00 in0.0 mm 0.00 in/hr0.0 mm/hr 0.00 in0.0 mm
12:55 AM 39.3°F4.1°C 35.5°F1.9°C 86% Calm Calm 10.0 mph16.1 kmh 29.95 in1014.2 mb 0.00 in0.0 mm 0.00 in/hr0.0 mm/hr 0.00 in0.0 mm
01:00 AM 39.3°F4.1°C 35.5°F1.9°C 86% 4.0 mph S6.4 kmh S 7.0 mph11.3 kmh 29.94 in1013.9 mb 0.00 in0.0 mm 0.00 in/hr0.0 mm/hr 0.00 in0.0 mm
01:05 AM 39.2°F4.0°C 35.4°F1.9°C 86% 5.0 mph S8.0 kmh S 7.0 mph11.3 kmh 29.94 in1013.9 mb 0.00 in0.0 mm 0.00 in/hr0.0 mm/hr 0.00 in0.0 mm
01:09 AM 39.2°F4.0°C 35.4°F1.9°C 86% 1.0 mph S1.6 kmh S 10.0 mph16.1 kmh 29.93 in1013.5 mb 0.00 in0.0 mm 0.00 in/hr0.0 mm/hr 0.00 in0.0 mm
01:15 AM 39.1°F3.9°C 35.3°F1.8°C 86% 2.0 mph S3.2 kmh S 7.0 mph11.3 kmh 29.94 in1013.9 mb 0.00 in0.0 mm 0.00 in/hr0.0 mm/hr 0.00 in0.0 mm
01:20 AM 39.1°F3.9°C 35.3°F1.8°C 86% 1.0 mph SSW1.6 kmh SSW 3.0 mph4.8 kmh 29.93 in1013.5 mb 0.00 in0.0 mm 0.00 in/hr0.0 mm/hr 0.00 in0.0 mm
01:25 AM 39.0°F3.9°C 35.2°F1.8°C 86% Calm Calm 4.0 mph6.4 kmh 29.92 in1013.2 mb 0.00 in0.0 mm 0.00 in/hr0.0 mm/hr 0.00 in0.0 mm
01:30 AM 38.8°F3.8°C 35.3°F1.8°C 87% 2.0 mph SSE3.2 kmh SSE 4.0 mph6.4 kmh 29.93 in1013.5 mb 0.00 in0.0 mm 0.00 in/hr0.0 mm/hr 0.00 in0.0 mm
01:35 AM 38.6°F3.7°C 35.1°F1.7°C 87% Calm Calm 4.0 mph6.4 kmh 29.93 in1013.5 mb 0.00 in0.0 mm 0.00 in/hr0.0 mm/hr 0.00 in0.0 mm
01:40 AM 38.6°F3.7°C 35.1°F1.7°C 87% Calm Calm 2.0 mph3.2 kmh 29.92 in1013.2 mb 0.00 in0.0 mm 0.00 in/hr0.0 mm/hr 0.00 in0.0 mm
01:45 AM 38.6°F3.7°C 35.1°F1.7°C 87% Calm Calm 5.0 mph8.0 kmh 29.91 in1012.9 mb 0.00 in0.0 mm 0.00 in/hr0.0 mm/hr 0.00 in0.0 mm
01:50 AM 38.6°F3.7°C 35.1°F1.7°C 87% 1.0 mph SW1.6 kmh SW 6.0 mph9.7 kmh 29.91 in1012.9 mb 0.00 in0.0 mm 0.00 in/hr0.0 mm/hr 0.00 in0.0 mm
01:55 AM 38.6°F3.7°C 35.4°F1.9°C 88% Calm Calm 6.0 mph9.7 kmh 29.91 in1012.9 mb 0.00 in0.0 mm 0.00 in/hr0.0 mm/hr 0.00 in0.0 mm
01:59 AM 38.6°F3.7°C 35.4°F1.9°C 88% 5.0 mph SE8.0 kmh SE 5.0 mph8.0 kmh 29.91 in1012.9 mb 0.00 in0.0 mm 0.00 in/hr0.0 mm/hr 0.00 in0.0 mm
02:00 AM 38.6°F3.7°C 35.4°F1.9°C 88% 3.0 mph SE4.8 kmh SE 5.0 mph8.0 kmh 29.90 in1012.5 mb 0.00 in0.0 mm 0.00 in/hr0.0 mm/hr 0.00 in0.0 mm
02:05 AM 38.6°F3.7°C 35.4°F1.9°C 88% Calm Calm 6.0 mph9.7 kmh 29.90 in1012.5 mb 0.00 in0.0 mm 0.00 in/hr0.0 mm/hr 0.00 in0.0 mm
02:10 AM 38.5°F3.6°C 35.3°F1.8°C 88% 2.0 mph ESE3.2 kmh ESE 7.0 mph11.3 kmh 29.89 in1012.2 mb 0.00 in0.0 mm 0.00 in/hr0.0 mm/hr 0.00 in0.0 mm
02:15 AM 38.4°F3.6°C 35.2°F1.8°C 88% 3.0 mph SSE4.8 kmh SSE 7.0 mph11.3 kmh 29.88 in1011.9 mb 0.00 in0.0 mm 0.00 in/hr0.0 mm/hr 0.00 in0.0 mm
02:20 AM 38.4°F3.6°C 35.2°F1.8°C 88% 1.0 mph SSE1.6 kmh SSE 6.0 mph9.7 kmh 29.88 in1011.9 mb 0.00 in0.0 mm 0.00 in/hr0.0 mm/hr 0.00 in0.0 mm
02:25 AM 38.4°F3.6°C 35.2°F1.8°C 88% 4.0 mph SSE6.4 kmh SSE 7.0 mph11.3 kmh 29.89 in1012.2 mb 0.00 in0.0 mm 0.00 in/hr0.0 mm/hr 0.00 in0.0 mm
02:30 AM 38.5°F3.6°C 35.3°F1.8°C 88% 6.0 mph SSE9.7 kmh SSE 9.0 mph14.5 kmh 29.88 in1011.9 mb 0.00 in0.0 mm 0.00 in/hr0.0 mm/hr 0.00 in0.0 mm
02:35 AM 38.4°F3.6°C 35.2°F1.8°C 88% 3.0 mph SE4.8 kmh SE 9.0 mph14.5 kmh 29.87 in1011.5 mb 0.00 in0.0 mm 0.00 in/hr0.0 mm/hr 0.00 in0.0 mm
02:40 AM 38.5°F3.6°C 35.3°F1.8°C 88% 7.0 mph SE11.3 kmh SE 9.0 mph14.5 kmh 29.86 in1011.2 mb 0.00 in0.0 mm 0.00 in/hr0.0 mm/hr 0.00 in0.0 mm
02:45 AM 38.4°F3.6°C 35.2°F1.8°C 88% 4.0 mph SSE6.4 kmh SSE 12.0 mph19.3 kmh 29.86 in1011.2 mb 0.00 in0.0 mm 0.00 in/hr0.0 mm/hr 0.00 in0.0 mm
02:50 AM 38.4°F3.6°C 35.2°F1.8°C 88% 2.0 mph SE3.2 kmh SE 6.0 mph9.7 kmh 29.85 in1010.8 mb 0.00 in0.0 mm 0.00 in/hr0.0 mm/hr 0.00 in0.0 mm
02:55 AM 38.4°F3.6°C 35.2°F1.8°C 88% 7.0 mph SE11.3 kmh SE 12.0 mph19.3 kmh 29.85 in1010.8 mb 0.00 in0.0 mm 0.00 in/hr0.0 mm/hr 0.00 in0.0 mm
03:00 AM 38.4°F3.6°C 35.2°F1.8°C 88% 2.0 mph S3.2 kmh S 5.0 mph8.0 kmh 29.85 in1010.8 mb 0.00 in0.0 mm 0.00 in/hr0.0 mm/hr 0.00 in0.0 mm
03:05 AM 38.4°F3.6°C 35.2°F1.8°C 88% 3.0 mph SE4.8 kmh SE 7.0 mph11.3 kmh 29.84 in1010.5 mb 0.00 in0.0 mm 0.00 in/hr0.0 mm/hr 0.00 in0.0 mm
03:10 AM 38.4°F3.6°C 35.2°F1.8°C 88% 1.0 mph SSE1.6 kmh SSE 1.0 mph1.6 kmh 29.85 in1010.8 mb 0.00 in0.0 mm 0.00 in/hr0.0 mm/hr 0.00 in0.0 mm
03:15 AM 38.4°F3.6°C 35.2°F1.8°C 88% Calm Calm 6.0 mph9.7 kmh 29.84 in1010.5 mb 0.00 in0.0 mm 0.00 in/hr0.0 mm/hr 0.00 in0.0 mm
03:20 AM 38.5°F3.6°C 35.3°F1.8°C 88% 3.0 mph SE4.8 kmh SE 4.0 mph6.4 kmh 29.84 in1010.5 mb 0.00 in0.0 mm 0.00 in/hr0.0 mm/hr 0.00 in0.0 mm
03:25 AM 38.5°F3.6°C 35.3°F1.8°C 88% 3.0 mph SE4.8 kmh SE 9.0 mph14.5 kmh 29.84 in1010.5 mb 0.00 in0.0 mm 0.00 in/hr0.0 mm/hr 0.00 in0.0 mm
03:30 AM 38.6°F3.7°C 35.4°F1.9°C 88% 2.0 mph SE3.2 kmh SE 5.0 mph8.0 kmh 29.84 in1010.5 mb 0.00 in0.0 mm 0.00 in/hr0.0 mm/hr 0.00 in0.0 mm
03:35 AM 38.6°F3.7°C 35.4°F1.9°C 88% 1.0 mph SE1.6 kmh SE 6.0 mph9.7 kmh 29.84 in1010.5 mb 0.00 in0.0 mm 0.00 in/hr0.0 mm/hr 0.00 in0.0 mm
03:40 AM 38.6°F3.7°C 35.4°F1.9°C 88% 1.0 mph SE1.6 kmh SE 3.0 mph4.8 kmh 29.84 in1010.5 mb 0.00 in0.0 mm 0.00 in/hr0.0 mm/hr 0.00 in0.0 mm
03:45 AM 38.6°F3.7°C 35.4°F1.9°C 88% 3.0 mph SE4.8 kmh SE 8.0 mph12.9 kmh 29.83 in1010.2 mb 0.00 in0.0 mm 0.00 in/hr0.0 mm/hr 0.00 in0.0 mm
03:50 AM 38.6°F3.7°C 35.4°F1.9°C 88% Calm Calm 2.0 mph3.2 kmh 29.82 in1009.8 mb 0.00 in0.0 mm 0.00 in/hr0.0 mm/hr 0.00 in0.0 mm
03:55 AM 38.6°F3.7°C 35.4°F1.9°C 88% 3.0 mph SE4.8 kmh SE 11.0 mph17.7 kmh 29.82 in1009.8 mb 0.00 in0.0 mm 0.00 in/hr0.0 mm/hr 0.00 in0.0 mm
04:00 AM 38.6°F3.7°C 35.4°F1.9°C 88% 3.0 mph S4.8 kmh S 3.0 mph4.8 kmh 29.82 in1009.8 mb 0.00 in0.0 mm 0.00 in/hr0.0 mm/hr 0.00 in0.0 mm
04:05 AM 38.5°F3.6°C 35.3°F1.8°C 88% Calm Calm 11.0 mph17.7 kmh 29.82 in1009.8 mb 0.00 in0.0 mm 0.00 in/hr0.0 mm/hr 0.00 in0.0 mm
04:10 AM 38.4°F3.6°C 35.2°F1.8°C 88% 2.0 mph SE3.2 kmh SE 7.0 mph11.3 kmh 29.82 in1009.8 mb 0.00 in0.0 mm 0.00 in/hr0.0 mm/hr 0.00 in0.0 mm
04:15 AM 38.4°F3.6°C 35.2°F1.8°C 88% 2.0 mph S3.2 kmh S 11.0 mph17.7 kmh 29.81 in1009.5 mb 0.00 in0.0 mm 0.00 in/hr0.0 mm/hr 0.00 in0.0 mm
04:20 AM 38.4°F3.6°C 35.2°F1.8°C 88% 3.0 mph SSE4.8 kmh SSE 5.0 mph8.0 kmh 29.80 in1009.1 mb 0.00 in0.0 mm 0.00 in/hr0.0 mm/hr 0.00 in0.0 mm
04:25 AM 38.3°F3.5°C 35.1°F1.7°C 88% 5.0 mph SSE8.0 kmh SSE 9.0 mph14.5 kmh 29.80 in1009.1 mb 0.00 in0.0 mm 0.00 in/hr0.0 mm/hr 0.00 in0.0 mm
04:30 AM 38.3°F3.5°C 35.1°F1.7°C 88% 6.0 mph SE9.7 kmh SE 10.0 mph16.1 kmh 29.79 in1008.8 mb 0.00 in0.0 mm 0.00 in/hr0.0 mm/hr 0.00 in0.0 mm
04:35 AM 38.2°F3.4°C 35.0°F1.7°C 88% 2.0 mph SSE3.2 kmh SSE 10.0 mph16.1 kmh 29.78 in1008.5 mb 0.00 in0.0 mm 0.00 in/hr0.0 mm/hr 0.00 in0.0 mm
04:40 AM 38.2°F3.4°C 35.0°F1.7°C 88% 3.0 mph SSE4.8 kmh SSE 5.0 mph8.0 kmh 29.77 in1008.1 mb 0.00 in0.0 mm 0.00 in/hr0.0 mm/hr 0.00 in0.0 mm
04:45 AM 38.1°F3.4°C 34.9°F1.6°C 88% 4.0 mph SE6.4 kmh SE 13.0 mph20.9 kmh 29.76 in1007.8 mb 0.00 in0.0 mm 0.00 in/hr0.0 mm/hr 0.00 in0.0 mm
04:50 AM 38.0°F3.3°C 34.8°F1.6°C 88% 5.0 mph SSE8.0 kmh SSE 7.0 mph11.3 kmh 29.76 in1007.8 mb 0.00 in0.0 mm 0.00 in/hr0.0 mm/hr 0.00 in0.0 mm
04:55 AM 38.0°F3.3°C 34.8°F1.6°C 88% 6.0 mph SE9.7 kmh SE 12.0 mph19.3 kmh 29.75 in1007.5 mb 0.00 in0.0 mm 0.00 in/hr0.0 mm/hr 0.00 in0.0 mm
05:00 AM 37.9°F3.3°C 34.7°F1.5°C 88% 4.0 mph SE6.4 kmh SE 4.0 mph6.4 kmh 29.74 in1007.1 mb 0.00 in0.0 mm 0.00 in/hr0.0 mm/hr 0.00 in0.0 mm
05:05 AM 37.9°F3.3°C 34.7°F1.5°C 88% 10.0 mph SSE16.1 kmh SSE 14.0 mph22.5 kmh 29.74 in1007.1 mb 0.00 in0.0 mm 0.00 in/hr0.0 mm/hr 0.00 in0.0 mm
05:10 AM 38.0°F3.3°C 34.8°F1.6°C 88% 3.0 mph SE4.8 kmh SE 4.0 mph6.4 kmh 29.74 in1007.1 mb 0.00 in0.0 mm 0.00 in/hr0.0 mm/hr 0.00 in0.0 mm
05:15 AM 38.0°F3.3°C 34.8°F1.6°C 88% 3.0 mph SSE4.8 kmh SSE 10.0 mph16.1 kmh 29.74 in1007.1 mb 0.00 in0.0 mm 0.00 in/hr0.0 mm/hr 0.00 in0.0 mm
05:20 AM 38.0°F3.3°C 34.8°F1.6°C 88% 3.0 mph SSE4.8 kmh SSE 4.0 mph6.4 kmh 29.73 in1006.8 mb 0.00 in0.0 mm 0.00 in/hr0.0 mm/hr 0.00 in0.0 mm
05:25 AM 38.1°F3.4°C 34.9°F1.6°C 88% Calm Calm 10.0 mph16.1 kmh 29.73 in1006.8 mb 0.00 in0.0 mm 0.00 in/hr0.0 mm/hr 0.00 in0.0 mm
05:30 AM 38.2°F3.4°C 35.0°F1.7°C 88% 3.0 mph SE4.8 kmh SE 5.0 mph8.0 kmh 29.73 in1006.8 mb 0.00 in0.0 mm 0.00 in/hr0.0 mm/hr 0.00 in0.0 mm
05:35 AM 38.3°F3.5°C 35.1°F1.7°C 88% Calm Calm 10.0 mph16.1 kmh 29.73 in1006.8 mb 0.00 in0.0 mm 0.00 in/hr0.0 mm/hr 0.00 in0.0 mm
05:40 AM 38.6°F3.7°C 35.4°F1.9°C 88% Calm Calm 4.0 mph6.4 kmh 29.72 in1006.4 mb 0.00 in0.0 mm 0.00 in/hr0.0 mm/hr 0.00 in0.0 mm
05:45 AM 38.8°F3.8°C 35.6°F2.0°C 88% Calm Calm 6.0 mph9.7 kmh 29.72 in1006.4 mb 0.00 in0.0 mm 0.00 in/hr0.0 mm/hr 0.00 in0.0 mm
05:50 AM 38.9°F3.8°C 35.7°F2.1°C 88% 1.0 mph SSE1.6 kmh SSE 3.0 mph4.8 kmh 29.72 in1006.4 mb 0.00 in0.0 mm 0.00 in/hr0.0 mm/hr 0.00 in0.0 mm
05:55 AM 39.1°F3.9°C 35.9°F2.2°C 88% 7.0 mph S11.3 kmh S 7.0 mph11.3 kmh 29.72 in1006.4 mb 0.00 in0.0 mm 0.00 in/hr0.0 mm/hr 0.00 in0.0 mm
06:00 AM 39.2°F4.0°C 36.0°F2.2°C 88% 3.0 mph SSE4.8 kmh SSE 6.0 mph9.7 kmh 29.71 in1006.1 mb 0.00 in0.0 mm 0.00 in/hr0.0 mm/hr 0.00 in0.0 mm
06:05 AM 39.4°F4.1°C 35.9°F2.2°C 87% Calm Calm 11.0 mph17.7 kmh 29.70 in1005.8 mb 0.00 in0.0 mm 0.00 in/hr0.0 mm/hr 0.00 in0.0 mm
06:10 AM 39.4°F4.1°C 35.9°F2.2°C 87% 3.0 mph ESE4.8 kmh ESE 6.0 mph9.7 kmh 29.69 in1005.4 mb 0.00 in0.0 mm 0.00 in/hr0.0 mm/hr 0.00 in0.0 mm
06:15 AM 39.6°F4.2°C 36.1°F2.3°C 87% 4.0 mph SSE6.4 kmh SSE 11.0 mph17.7 kmh 29.69 in1005.4 mb 0.00 in0.0 mm 0.00 in/hr0.0 mm/hr 0.00 in0.0 mm
06:20 AM 39.7°F4.3°C 36.2°F2.3°C 87% Calm Calm 4.0 mph6.4 kmh 29.69 in1005.4 mb 0.00 in0.0 mm 0.00 in/hr0.0 mm/hr 0.00 in0.0 mm
06:25 AM 39.9°F4.4°C 36.1°F2.3°C 86% 3.0 mph S4.8 kmh S 11.0 mph17.7 kmh 29.69 in1005.4 mb 0.00 in0.0 mm 0.00 in/hr0.0 mm/hr 0.00 in0.0 mm
06:30 AM 40.1°F4.5°C 36.3°F2.4°C 86% Calm Calm 1.0 mph1.6 kmh 29.68 in1005.1 mb 0.00 in0.0 mm 0.00 in/hr0.0 mm/hr 0.00 in0.0 mm
06:35 AM 40.3°F4.6°C 36.5°F2.5°C 86% 3.0 mph SE4.8 kmh SE 10.0 mph16.1 kmh 29.67 in1004.7 mb 0.00 in0.0 mm 0.00 in/hr0.0 mm/hr 0.00 in0.0 mm
06:40 AM 40.6°F4.8°C 36.5°F2.5°C 85% Calm Calm 3.0 mph4.8 kmh 29.67 in1004.7 mb 0.00 in0.0 mm 0.00 in/hr0.0 mm/hr 0.00 in0.0 mm
06:45 AM 40.8°F4.9°C 36.7°F2.6°C 85% 6.0 mph SE9.7 kmh SE 10.0 mph16.1 kmh 29.67 in1004.7 mb 0.00 in0.0 mm 0.00 in/hr0.0 mm/hr 0.00 in0.0 mm
06:50 AM 41.1°F5.1°C 36.6°F2.6°C 84% 3.0 mph SSW4.8 kmh SSW 5.0 mph8.0 kmh 29.67 in1004.7 mb 0.00 in0.0 mm 0.00 in/hr0.0 mm/hr 0.00 in0.0 mm
06:55 AM 41.3°F5.2°C 36.8°F2.7°C 84% 2.0 mph SSE3.2 kmh SSE 7.0 mph11.3 kmh 29.67 in1004.7 mb 0.00 in0.0 mm 0.00 in/hr0.0 mm/hr 0.00 in0.0 mm
07:00 AM 41.4°F5.2°C 36.9°F2.7°C 84% 4.0 mph SE6.4 kmh SE 5.0 mph8.0 kmh 29.66 in1004.4 mb 0.00 in0.0 mm 0.00 in/hr0.0 mm/hr 0.00 in0.0 mm
07:05 AM 41.7°F5.4°C 36.9°F2.7°C 83% 1.0 mph S1.6 kmh S 10.0 mph16.1 kmh 29.66 in1004.4 mb 0.00 in0.0 mm 0.00 in/hr0.0 mm/hr 0.00 in0.0 mm
07:10 AM 41.9°F5.5°C 36.8°F2.7°C 82% 4.0 mph SSE6.4 kmh SSE 4.0 mph6.4 kmh 29.65 in1004.1 mb 0.00 in0.0 mm 0.00 in/hr0.0 mm/hr 0.00 in0.0 mm
07:15 AM 42.1°F5.6°C 37.0°F2.8°C 82% 4.0 mph SSW6.4 kmh SSW 11.0 mph17.7 kmh 29.65 in1004.1 mb 0.00 in0.0 mm 0.00 in/hr0.0 mm/hr 0.00 in0.0 mm
07:20 AM 42.3°F5.7°C 36.9°F2.7°C 81% 7.0 mph S11.3 kmh S 8.0 mph12.9 kmh 29.65 in1004.1 mb 0.00 in0.0 mm 0.00 in/hr0.0 mm/hr 0.00 in0.0 mm
07:25 AM 42.5°F5.8°C 37.1°F2.8°C 81% Calm Calm 12.0 mph19.3 kmh 29.65 in1004.1 mb 0.00 in0.0 mm 0.00 in/hr0.0 mm/hr 0.00 in0.0 mm
07:30 AM 42.7°F5.9°C 37.3°F2.9°C 81% 4.0 mph SSE6.4 kmh SSE 6.0 mph9.7 kmh 29.65 in1004.1 mb 0.00 in0.0 mm 0.00 in/hr0.0 mm/hr 0.00 in0.0 mm
07:35 AM 42.8°F6.0°C 37.1°F2.8°C 80% Calm Calm 11.0 mph17.7 kmh 29.64 in1003.7 mb 0.00 in0.0 mm 0.00 in/hr0.0 mm/hr 0.00 in0.0 mm
07:40 AM 42.8°F6.0°C 37.1°F2.8°C 80% 9.0 mph S14.5 kmh S 9.0 mph14.5 kmh 29.63 in1003.4 mb 0.00 in0.0 mm 0.00 in/hr0.0 mm/hr 0.00 in0.0 mm
07:45 AM 42.8°F6.0°C 37.1°F2.8°C 80% Calm Calm 13.0 mph20.9 kmh 29.63 in1003.4 mb 0.00 in0.0 mm 0.00 in/hr0.0 mm/hr 0.00 in0.0 mm
07:50 AM 42.8°F6.0°C 37.1°F2.8°C 80% Calm Calm 2.0 mph3.2 kmh 29.62 in1003.0 mb 0.00 in0.0 mm 0.00 in/hr0.0 mm/hr 0.00 in0.0 mm
07:55 AM 42.7°F5.9°C 37.3°F2.9°C 81% 3.0 mph S4.8 kmh S 7.0 mph11.3 kmh 29.62 in1003.0 mb 0.00 in0.0 mm 0.00 in/hr0.0 mm/hr 0.00 in0.0 mm
08:00 AM 42.7°F5.9°C 37.0°F2.8°C 80% 4.0 mph SSE6.4 kmh SSE 5.0 mph8.0 kmh 29.62 in1003.0 mb 0.00 in0.0 mm 0.00 in/hr0.0 mm/hr 0.00 in0.0 mm
08:05 AM 42.7°F5.9°C 37.0°F2.8°C 80% 1.0 mph S1.6 kmh S 9.0 mph14.5 kmh 29.62 in1003.0 mb 0.00 in0.0 mm 0.00 in/hr0.0 mm/hr 0.00 in0.0 mm
08:10 AM 42.7°F5.9°C 37.3°F2.9°C 81% Calm Calm 3.0 mph4.8 kmh 29.62 in1003.0 mb 0.00 in0.0 mm 0.00 in/hr0.0 mm/hr 0.00 in0.0 mm
08:15 AM 42.7°F5.9°C 37.3°F2.9°C 81% 4.0 mph S6.4 kmh S 13.0 mph20.9 kmh 29.62 in1003.0 mb 0.00 in0.0 mm 0.00 in/hr0.0 mm/hr 0.00 in0.0 mm
08:20 AM 42.7°F5.9°C 37.3°F2.9°C 81% 3.0 mph SW4.8 kmh SW 3.0 mph4.8 kmh 29.62 in1003.0 mb 0.00 in0.0 mm 0.00 in/hr0.0 mm/hr 0.00 in0.0 mm
08:25 AM 42.6°F5.9°C 37.2°F2.9°C 81% 2.0 mph SSE3.2 kmh SSE 11.0 mph17.7 kmh 29.62 in1003.0 mb 0.00 in0.0 mm 0.00 in/hr0.0 mm/hr 0.00 in0.0 mm
08:30 AM 42.5°F5.8°C 37.1°F2.8°C 81% 4.0 mph S6.4 kmh S 5.0 mph8.0 kmh 29.61 in1002.7 mb 0.00 in0.0 mm 0.00 in/hr0.0 mm/hr 0.00 in0.0 mm
08:35 AM 42.7°F5.9°C 37.3°F2.9°C 81% Calm Calm 16.0 mph25.7 kmh 29.61 in1002.7 mb 0.00 in0.0 mm 0.00 in/hr0.0 mm/hr 0.00 in0.0 mm
08:40 AM 42.7°F5.9°C 37.3°F2.9°C 81% 5.0 mph SSW8.0 kmh SSW 9.0 mph14.5 kmh 29.60 in1002.4 mb 0.00 in0.0 mm 0.00 in/hr0.0 mm/hr 0.00 in0.0 mm
08:45 AM 42.7°F5.9°C 37.3°F2.9°C 81% 9.0 mph SSW14.5 kmh SSW 12.0 mph19.3 kmh 29.60 in1002.4 mb 0.00 in0.0 mm 0.00 in/hr0.0 mm/hr 0.00 in0.0 mm
08:50 AM 42.7°F5.9°C 37.3°F2.9°C 81% 5.0 mph S8.0 kmh S 9.0 mph14.5 kmh 29.59 in1002.0 mb 0.00 in0.0 mm 0.00 in/hr0.0 mm/hr 0.00 in0.0 mm
08:55 AM 42.7°F5.9°C 37.3°F2.9°C 81% 4.0 mph S6.4 kmh S 12.0 mph19.3 kmh 29.59 in1002.0 mb 0.00 in0.0 mm 0.00 in/hr0.0 mm/hr 0.00 in0.0 mm
09:00 AM 42.7°F5.9°C 37.3°F2.9°C 81% 3.0 mph S4.8 kmh S 3.0 mph4.8 kmh 29.59 in1002.0 mb 0.00 in0.0 mm 0.00 in/hr0.0 mm/hr 0.00 in0.0 mm
09:05 AM 42.7°F5.9°C 37.3°F2.9°C 81% 5.0 mph S8.0 kmh S 13.0 mph20.9 kmh 29.58 in1001.7 mb 0.00 in0.0 mm 0.00 in/hr0.0 mm/hr 0.00 in0.0 mm
09:10 AM 42.7°F5.9°C 37.3°F2.9°C 81% 3.0 mph S4.8 kmh S 14.0 mph22.5 kmh 29.58 in1001.7 mb 0.00 in0.0 mm 0.00 in/hr0.0 mm/hr 0.00 in0.0 mm
09:15 AM 42.7°F5.9°C 37.3°F2.9°C 81% 3.0 mph SSW4.8 kmh SSW 14.0 mph22.5 kmh 29.59 in1002.0 mb 0.00 in0.0 mm 0.00 in/hr0.0 mm/hr 0.00 in0.0 mm
09:20 AM 42.8°F6.0°C 37.4°F3.0°C 81% 4.0 mph SW6.4 kmh SW 12.0 mph19.3 kmh 29.59 in1002.0 mb 0.00 in0.0 mm 0.00 in/hr0.0 mm/hr 0.00 in0.0 mm
09:25 AM 43.0°F6.1°C 37.9°F3.3°C 82% 5.0 mph WSW8.0 kmh WSW 14.0 mph22.5 kmh 29.59 in1002.0 mb 0.00 in0.0 mm 0.00 in/hr0.0 mm/hr 0.00 in0.0 mm
09:30 AM 43.1°F6.2°C 38.0°F3.3°C 82% 4.0 mph S6.4 kmh S 11.0 mph17.7 kmh 29.58 in1001.7 mb 0.00 in0.0 mm 0.00 in/hr0.0 mm/hr 0.00 in0.0 mm
09:35 AM 43.3°F6.3°C 37.9°F3.3°C 81% 3.0 mph S4.8 kmh S 11.0 mph17.7 kmh 29.59 in1002.0 mb 0.00 in0.0 mm 0.00 in/hr0.0 mm/hr 0.00 in0.0 mm
09:40 AM 43.4°F6.3°C 38.0°F3.3°C 81% 6.0 mph S9.7 kmh S 10.0 mph16.1 kmh 29.58 in1001.7 mb 0.00 in0.0 mm 0.00 in/hr0.0 mm/hr 0.00 in0.0 mm
09:45 AM 43.6°F6.4°C 38.2°F3.4°C 81% 6.0 mph SW9.7 kmh SW 13.0 mph20.9 kmh 29.58 in1001.7 mb 0.00 in0.0 mm 0.00 in/hr0.0 mm/hr 0.00 in0.0 mm
09:50 AM 43.7°F6.5°C 38.3°F3.5°C 81% 4.0 mph SSW6.4 kmh SSW 6.0 mph9.7 kmh 29.58 in1001.7 mb 0.00 in0.0 mm 0.00 in/hr0.0 mm/hr 0.00 in0.0 mm
09:55 AM 43.9°F6.6°C 38.5°F3.6°C 81% 2.0 mph SSW3.2 kmh SSW 11.0 mph17.7 kmh 29.58 in1001.7 mb 0.00 in0.0 mm 0.00 in/hr0.0 mm/hr 0.00 in0.0 mm
10:00 AM 44.1°F6.7°C 38.7°F3.7°C 81% 5.0 mph SSW8.0 kmh SSW 10.0 mph16.1 kmh 29.58 in1001.7 mb 0.00 in0.0 mm 0.00 in/hr0.0 mm/hr 0.00 in0.0 mm
10:05 AM 44.3°F6.8°C 38.9°F3.8°C 81% 7.0 mph S11.3 kmh S 12.0 mph19.3 kmh 29.58 in1001.7 mb 0.00 in0.0 mm 0.00 in/hr0.0 mm/hr 0.00 in0.0 mm
10:10 AM 44.5°F6.9°C 39.0°F3.9°C 81% 6.0 mph SW9.7 kmh SW 6.0 mph9.7 kmh 29.58 in1001.7 mb 0.00 in0.0 mm 0.00 in/hr0.0 mm/hr 0.00 in0.0 mm
10:15 AM 44.7°F7.1°C 39.2°F4.0°C 81% 5.0 mph SSE8.0 kmh SSE 13.0 mph20.9 kmh 29.57 in1001.4 mb 0.00 in0.0 mm 0.00 in/hr0.0 mm/hr 0.00 in0.0 mm
10:20 AM 44.7°F7.1°C 39.2°F4.0°C 81% Calm Calm 6.0 mph9.7 kmh 29.57 in1001.4 mb 0.00 in0.0 mm 0.00 in/hr0.0 mm/hr 0.00 in0.0 mm
10:25 AM 44.9°F7.2°C 39.4°F4.1°C 81% 3.0 mph SSW4.8 kmh SSW 10.0 mph16.1 kmh 29.56 in1001.0 mb 0.00 in0.0 mm 0.00 in/hr0.0 mm/hr 0.00 in0.0 mm
10:30 AM 45.1°F7.3°C 39.6°F4.2°C 81% 8.0 mph SW12.9 kmh SW 9.0 mph14.5 kmh 29.56 in1001.0 mb 0.00 in0.0 mm 0.00 in/hr0.0 mm/hr 0.00 in0.0 mm
10:35 AM 45.3°F7.4°C 39.8°F4.3°C 81% 6.0 mph S9.7 kmh S 10.0 mph16.1 kmh 29.57 in1001.4 mb 0.00 in0.0 mm 0.00 in/hr0.0 mm/hr 0.00 in0.0 mm
10:40 AM 45.5°F7.5°C 40.0°F4.4°C 81% 5.0 mph SSW8.0 kmh SSW 7.0 mph11.3 kmh 29.57 in1001.4 mb 0.00 in0.0 mm 0.00 in/hr0.0 mm/hr 0.00 in0.0 mm
10:45 AM 45.9°F7.7°C 40.4°F4.7°C 81% 14.0 mph SW22.5 kmh SW 17.0 mph27.4 kmh 29.57 in1001.4 mb 0.00 in0.0 mm 0.00 in/hr0.0 mm/hr 0.00 in0.0 mm
10:50 AM 46.3°F7.9°C 40.8°F4.9°C 81% 5.0 mph SW8.0 kmh SW 7.0 mph11.3 kmh 29.57 in1001.4 mb 0.00 in0.0 mm 0.00 in/hr0.0 mm/hr 0.00 in0.0 mm
10:56 AM 46.8°F8.2°C 41.0°F5.0°C 80% 5.0 mph SW8.0 kmh SW 14.0 mph22.5 kmh 29.57 in1001.4 mb 0.00 in0.0 mm 0.00 in/hr0.0 mm/hr 0.00 in0.0 mm
11:00 AM 47.0°F8.3°C 41.2°F5.1°C 80% 6.0 mph WSW9.7 kmh WSW 9.0 mph14.5 kmh 29.57 in1001.4 mb 0.00 in0.0 mm 0.00 in/hr0.0 mm/hr 0.00 in0.0 mm
11:05 AM 47.2°F8.4°C 41.4°F5.2°C 80% 13.0 mph S20.9 kmh S 24.0 mph38.6 kmh 29.57 in1001.4 mb 0.00 in0.0 mm 0.00 in/hr0.0 mm/hr 0.00 in0.0 mm
11:10 AM 47.4°F8.6°C 41.2°F5.1°C 79% 16.0 mph SW25.7 kmh SW 16.0 mph25.7 kmh 29.57 in1001.4 mb 0.00 in0.0 mm 0.00 in/hr0.0 mm/hr 0.00 in0.0 mm
11:15 AM 47.3°F8.5°C 41.1°F5.1°C 79% 10.0 mph SW16.1 kmh SW 16.0 mph25.7 kmh 29.57 in1001.4 mb 0.00 in0.0 mm 0.00 in/hr0.0 mm/hr 0.00 in0.0 mm
11:20 AM 47.3°F8.5°C 41.1°F5.1°C 79% 10.0 mph SW16.1 kmh SW 11.0 mph17.7 kmh 29.56 in1001.0 mb 0.00 in0.0 mm 0.00 in/hr0.0 mm/hr 0.00 in0.0 mm
11:25 AM 47.3°F8.5°C 41.1°F5.1°C 79% 4.0 mph SW6.4 kmh SW 17.0 mph27.4 kmh 29.56 in1001.0 mb 0.00 in0.0 mm 0.00 in/hr0.0 mm/hr 0.00 in0.0 mm
11:30 AM 47.3°F8.5°C 41.1°F5.1°C 79% 12.0 mph WSW19.3 kmh WSW 12.0 mph19.3 kmh 29.56 in1001.0 mb 0.00 in0.0 mm 0.00 in/hr0.0 mm/hr 0.00 in0.0 mm
11:35 AM 47.4°F8.6°C 40.9°F4.9°C 78% 12.0 mph SW19.3 kmh SW 23.0 mph37.0 kmh 29.56 in1001.0 mb 0.00 in0.0 mm 0.00 in/hr0.0 mm/hr 0.00 in0.0 mm
11:40 AM 47.3°F8.5°C 40.8°F4.9°C 78% 14.0 mph SSW22.5 kmh SSW 14.0 mph22.5 kmh 29.56 in1001.0 mb 0.00 in0.0 mm 0.00 in/hr0.0 mm/hr 0.00 in0.0 mm
11:45 AM 47.2°F8.4°C 40.7°F4.8°C 78% 13.0 mph SSW20.9 kmh SSW 20.0 mph32.2 kmh 29.56 in1001.0 mb 0.00 in0.0 mm 0.00 in/hr0.0 mm/hr 0.00 in0.0 mm
11:50 AM 47.0°F8.3°C 40.8°F4.9°C 79% 9.0 mph W14.5 kmh W 15.0 mph24.1 kmh 29.56 in1001.0 mb 0.00 in0.0 mm 0.00 in/hr0.0 mm/hr 0.00 in0.0 mm
11:55 AM 46.8°F8.2°C 40.3°F4.6°C 78% 6.0 mph WSW9.7 kmh WSW 18.0 mph29.0 kmh 29.56 in1001.0 mb 0.00 in0.0 mm 0.00 in/hr0.0 mm/hr 0.00 in0.0 mm
12:00 PM 46.6°F8.1°C 39.8°F4.3°C 77% 13.0 mph SW20.9 kmh SW 21.0 mph33.8 kmh 29.56 in1001.0 mb 0.00 in0.0 mm 0.00 in/hr0.0 mm/hr 0.00 in0.0 mm
12:05 PM 46.3°F7.9°C 39.8°F4.3°C 78% 11.0 mph SW17.7 kmh SW 25.0 mph40.2 kmh 29.56 in1001.0 mb 0.00 in0.0 mm 0.00 in/hr0.0 mm/hr 0.00 in0.0 mm
12:10 PM 45.6°F7.6°C 39.2°F4.0°C 78% 7.0 mph WSW11.3 kmh WSW 12.0 mph19.3 kmh 29.57 in1001.4 mb 0.00 in0.0 mm 0.00 in/hr0.0 mm/hr 0.00 in0.0 mm
12:15 PM 44.7°F7.1°C 37.9°F3.3°C 77% 8.0 mph SW12.9 kmh SW 20.0 mph32.2 kmh 29.57 in1001.4 mb 0.00 in0.0 mm 0.00 in/hr0.0 mm/hr 0.00 in0.0 mm
12:20 PM 44.0°F6.7°C 36.9°F2.7°C 76% 17.0 mph SW27.4 kmh SW 17.0 mph27.4 kmh 29.57 in1001.4 mb 0.00 in0.0 mm 0.00 in/hr0.0 mm/hr 0.00 in0.0 mm
12:25 PM 43.6°F6.4°C 36.9°F2.7°C 77% 13.0 mph SW20.9 kmh SW 22.0 mph35.4 kmh 29.57 in1001.4 mb 0.00 in0.0 mm 0.00 in/hr0.0 mm/hr 0.00 in0.0 mm
12:30 PM 43.3°F6.3°C 36.9°F2.7°C 78% 9.0 mph SW14.5 kmh SW 13.0 mph20.9 kmh 29.57 in1001.4 mb 0.00 in0.0 mm 0.00 in/hr0.0 mm/hr 0.00 in0.0 mm
12:35 PM 43.2°F6.2°C 37.1°F2.8°C 79% 5.0 mph SW8.0 kmh SW 20.0 mph32.2 kmh 29.56 in1001.0 mb 0.00 in0.0 mm 0.00 in/hr0.0 mm/hr 0.00 in0.0 mm
12:40 PM 43.1°F6.2°C 37.0°F2.8°C 79% 7.0 mph SW11.3 kmh SW 12.0 mph19.3 kmh 29.56 in1001.0 mb 0.00 in0.0 mm 0.00 in/hr0.0 mm/hr 0.00 in0.0 mm
12:45 PM 42.9°F6.1°C 37.2°F2.9°C 80% 12.0 mph WSW19.3 kmh WSW 20.0 mph32.2 kmh 29.57 in1001.4 mb 0.00 in0.0 mm 0.00 in/hr0.0 mm/hr 0.00 in0.0 mm
12:50 PM 42.8°F6.0°C 37.1°F2.8°C 80% 22.0 mph W35.4 kmh W 22.0 mph35.4 kmh 29.57 in1001.4 mb 0.00 in0.0 mm 0.00 in/hr0.0 mm/hr 0.00 in0.0 mm
12:55 PM 42.6°F5.9°C 37.2°F2.9°C 81% 7.0 mph WSW11.3 kmh WSW 22.0 mph35.4 kmh 29.57 in1001.4 mb 0.00 in0.0 mm 0.00 in/hr0.0 mm/hr 0.00 in0.0 mm
01:00 PM 42.5°F5.8°C 37.1°F2.8°C 81% 6.0 mph SW9.7 kmh SW 13.0 mph20.9 kmh 29.57 in1001.4 mb 0.00 in0.0 mm 0.00 in/hr0.0 mm/hr 0.00 in0.0 mm
01:05 PM 42.4°F5.8°C 37.3°F2.9°C 82% 4.0 mph SW6.4 kmh SW 16.0 mph25.7 kmh 29.57 in1001.4 mb 0.00 in0.0 mm 0.00 in/hr0.0 mm/hr 0.00 in0.0 mm
01:10 PM 42.3°F5.7°C 37.2°F2.9°C 82% 9.0 mph SW14.5 kmh SW 18.0 mph29.0 kmh 29.57 in1001.4 mb 0.00 in0.0 mm 0.00 in/hr0.0 mm/hr 0.00 in0.0 mm
01:15 PM 42.2°F5.7°C 37.4°F3.0°C 83% 7.0 mph WSW11.3 kmh WSW 22.0 mph35.4 kmh 29.57 in1001.4 mb 0.00 in0.0 mm 0.00 in/hr0.0 mm/hr 0.00 in0.0 mm
01:20 PM 42.0°F5.6°C 37.2°F2.9°C 83% 16.0 mph SW25.7 kmh SW 17.0 mph27.4 kmh 29.57 in1001.4 mb 0.00 in0.0 mm 0.00 in/hr0.0 mm/hr 0.00 in0.0 mm
01:25 PM 41.9°F5.5°C 37.4°F3.0°C 84% 10.0 mph SW16.1 kmh SW 20.0 mph32.2 kmh 29.57 in1001.4 mb 0.00 in0.0 mm 0.00 in/hr0.0 mm/hr 0.00 in0.0 mm
01:30 PM 41.7°F5.4°C 37.5°F3.1°C 85% 10.0 mph WSW16.1 kmh WSW 16.0 mph25.7 kmh 29.57 in1001.4 mb 0.00 in0.0 mm 0.00 in/hr0.0 mm/hr 0.00 in0.0 mm
01:35 PM 41.5°F5.3°C 37.6°F3.1°C 86% 9.0 mph SW14.5 kmh SW 23.0 mph37.0 kmh 29.56 in1001.0 mb 0.00 in0.0 mm 0.00 in/hr0.0 mm/hr 0.00 in0.0 mm
01:40 PM 41.3°F5.2°C 37.7°F3.2°C 87% 7.0 mph WSW11.3 kmh WSW 10.0 mph16.1 kmh 29.56 in1001.0 mb 0.00 in0.0 mm 0.00 in/hr0.0 mm/hr 0.00 in0.0 mm
01:45 PM 41.2°F5.1°C 37.6°F3.1°C 87% 5.0 mph W8.0 kmh W 15.0 mph24.1 kmh 29.56 in1001.0 mb 0.00 in0.0 mm 0.00 in/hr0.0 mm/hr 0.00 in0.0 mm
01:50 PM 41.1°F5.1°C 37.8°F3.2°C 88% 2.0 mph WSW3.2 kmh WSW 10.0 mph16.1 kmh 29.56 in1001.0 mb 0.00 in0.0 mm 0.00 in/hr0.0 mm/hr 0.00 in0.0 mm
01:55 PM 41.1°F5.1°C 37.8°F3.2°C 88% 13.0 mph SW20.9 kmh SW 18.0 mph29.0 kmh 29.56 in1001.0 mb 0.00 in0.0 mm 0.00 in/hr0.0 mm/hr 0.00 in0.0 mm
02:00 PM 41.0°F5.0°C 38.0°F3.3°C 89% 4.0 mph W6.4 kmh W 7.0 mph11.3 kmh 29.57 in1001.4 mb 0.01 in0.3 mm 0.01 in/hr0.3 mm/hr 0.01 in0.3 mm
02:05 PM 40.9°F4.9°C 37.9°F3.3°C 89% 13.0 mph WSW20.9 kmh WSW 25.0 mph40.2 kmh 29.57 in1001.4 mb 0.01 in0.3 mm 0.00 in/hr0.0 mm/hr 0.01 in0.3 mm
02:10 PM 40.7°F4.8°C 37.7°F3.2°C 89% 11.0 mph WNW17.7 kmh WNW 18.0 mph29.0 kmh 29.57 in1001.4 mb 0.01 in0.3 mm 0.00 in/hr0.0 mm/hr 0.01 in0.3 mm
02:15 PM 40.7°F4.8°C 37.4°F3.0°C 88% 17.0 mph WSW27.4 kmh WSW 23.0 mph37.0 kmh 29.57 in1001.4 mb 0.01 in0.3 mm 0.00 in/hr0.0 mm/hr 0.01 in0.3 mm
02:20 PM 40.3°F4.6°C 36.5°F2.5°C 86% 14.0 mph W22.5 kmh W 28.0 mph45.1 kmh 29.58 in1001.7 mb 0.01 in0.3 mm 0.00 in/hr0.0 mm/hr 0.01 in0.3 mm
02:25 PM 40.0°F4.4°C 35.9°F2.2°C 85% 9.0 mph W14.5 kmh W 28.0 mph45.1 kmh 29.58 in1001.7 mb 0.01 in0.3 mm 0.00 in/hr0.0 mm/hr 0.01 in0.3 mm
02:30 PM 40.0°F4.4°C 35.6°F2.0°C 84% 22.0 mph W35.4 kmh W 22.0 mph35.4 kmh 29.59 in1002.0 mb 0.01 in0.3 mm 0.00 in/hr0.0 mm/hr 0.01 in0.3 mm
02:35 PM 40.0°F4.4°C 35.3°F1.8°C 83% 11.0 mph WSW17.7 kmh WSW 28.0 mph45.1 kmh 29.60 in1002.4 mb 0.01 in0.3 mm 0.00 in/hr0.0 mm/hr 0.01 in0.3 mm
02:40 PM 40.0°F4.4°C 35.3°F1.8°C 83% 13.0 mph SW20.9 kmh SW 25.0 mph40.2 kmh 29.60 in1002.4 mb 0.01 in0.3 mm 0.00 in/hr0.0 mm/hr 0.01 in0.3 mm
02:45 PM 39.9°F4.4°C 34.2°F1.2°C 80% 10.0 mph W16.1 kmh W 29.0 mph46.7 kmh 29.60 in1002.4 mb 0.01 in0.3 mm 0.00 in/hr0.0 mm/hr 0.01 in0.3 mm
02:50 PM 39.8°F4.3°C 33.8°F1.0°C 79% 14.0 mph W22.5 kmh W 29.0 mph46.7 kmh 29.61 in1002.7 mb 0.01 in0.3 mm 0.00 in/hr0.0 mm/hr 0.01 in0.3 mm
02:55 PM 39.6°F4.2°C 33.6°F0.9°C 79% 7.0 mph SW11.3 kmh SW 29.0 mph46.7 kmh 29.61 in1002.7 mb 0.01 in0.3 mm 0.00 in/hr0.0 mm/hr 0.01 in0.3 mm
03:00 PM 39.4°F4.1°C 33.4°F0.8°C 79% 11.0 mph WNW17.7 kmh WNW 24.0 mph38.6 kmh 29.62 in1003.0 mb 0.00 in0.0 mm 0.00 in/hr0.0 mm/hr 0.01 in0.3 mm
03:05 PM 39.3°F4.1°C 33.3°F0.7°C 79% 11.0 mph NW17.7 kmh NW 33.0 mph53.1 kmh 29.63 in1003.4 mb 0.00 in0.0 mm 0.00 in/hr0.0 mm/hr 0.01 in0.3 mm
03:10 PM 39.2°F4.0°C 33.3°F0.7°C 79% 13.0 mph WNW20.9 kmh WNW 15.0 mph24.1 kmh 29.63 in1003.4 mb 0.00 in0.0 mm 0.00 in/hr0.0 mm/hr 0.01 in0.3 mm
03:15 PM 39.3°F4.1°C 33.0°F0.6°C 78% 5.0 mph WNW8.0 kmh WNW 29.0 mph46.7 kmh 29.63 in1003.4 mb 0.00 in0.0 mm 0.00 in/hr0.0 mm/hr 0.01 in0.3 mm
03:20 PM 39.4°F4.1°C 33.4°F0.8°C 79% 11.0 mph WNW17.7 kmh WNW 19.0 mph30.6 kmh 29.64 in1003.7 mb 0.00 in0.0 mm 0.00 in/hr0.0 mm/hr 0.01 in0.3 mm
03:25 PM 39.5°F4.2°C 33.2°F0.7°C 78% 9.0 mph W14.5 kmh W 23.0 mph37.0 kmh 29.64 in1003.7 mb 0.00 in0.0 mm 0.00 in/hr0.0 mm/hr 0.01 in0.3 mm
03:30 PM 39.5°F4.2°C 32.9°F0.5°C 77% 12.0 mph WNW19.3 kmh WNW 12.0 mph19.3 kmh 29.64 in1003.7 mb 0.00 in0.0 mm 0.00 in/hr0.0 mm/hr 0.01 in0.3 mm
03:35 PM 39.4°F4.1°C 32.5°F0.3°C 76% 17.0 mph WSW27.4 kmh WSW 24.0 mph38.6 kmh 29.65 in1004.1 mb 0.00 in0.0 mm 0.00 in/hr0.0 mm/hr 0.01 in0.3 mm
03:40 PM 39.4°F4.1°C 32.2°F0.1°C 75% 26.0 mph W41.8 kmh W 26.0 mph41.8 kmh 29.66 in1004.4 mb 0.00 in0.0 mm 0.00 in/hr0.0 mm/hr 0.01 in0.3 mm
03:45 PM 39.3°F4.1°C 31.7°F-0.2°C 74% 7.0 mph WSW11.3 kmh WSW 26.0 mph41.8 kmh 29.66 in1004.4 mb 0.00 in0.0 mm 0.00 in/hr0.0 mm/hr 0.01 in0.3 mm
03:50 PM 39.3°F4.1°C 32.1°F0.1°C 75% 10.0 mph W16.1 kmh W 24.0 mph38.6 kmh 29.66 in1004.4 mb 0.00 in0.0 mm 0.00 in/hr0.0 mm/hr 0.01 in0.3 mm
03:55 PM 39.3°F4.1°C 32.1°F0.1°C 75% 22.0 mph NNW35.4 kmh NNW 26.0 mph41.8 kmh 29.67 in1004.7 mb 0.00 in0.0 mm 0.00 in/hr0.0 mm/hr 0.01 in0.3 mm
04:00 PM 39.2°F4.0°C 32.0°F0.0°C 75% 7.0 mph W11.3 kmh W 20.0 mph32.2 kmh 29.67 in1004.7 mb 0.00 in0.0 mm 0.00 in/hr0.0 mm/hr 0.01 in0.3 mm
04:05 PM 39.2°F4.0°C 32.3°F0.2°C 76% 10.0 mph W16.1 kmh W 27.0 mph43.5 kmh 29.68 in1005.1 mb 0.00 in0.0 mm 0.00 in/hr0.0 mm/hr 0.01 in0.3 mm
04:10 PM 39.0°F3.9°C 32.1°F0.1°C 76% 20.0 mph W32.2 kmh W 20.0 mph32.2 kmh 29.68 in1005.1 mb 0.00 in0.0 mm 0.00 in/hr0.0 mm/hr 0.01 in0.3 mm
04:15 PM 38.8°F3.8°C 31.9°F-0.1°C 76% 13.0 mph W20.9 kmh W 27.0 mph43.5 kmh 29.68 in1005.1 mb 0.00 in0.0 mm 0.00 in/hr0.0 mm/hr 0.01 in0.3 mm
04:20 PM 38.7°F3.7°C 32.4°F0.2°C 78% 14.0 mph NW22.5 kmh NW 26.0 mph41.8 kmh 29.69 in1005.4 mb 0.00 in0.0 mm 0.00 in/hr0.0 mm/hr 0.01 in0.3 mm
04:25 PM 38.6°F3.7°C 32.0°F0.0°C 77% 14.0 mph WNW22.5 kmh WNW 26.0 mph41.8 kmh 29.69 in1005.4 mb 0.00 in0.0 mm 0.00 in/hr0.0 mm/hr 0.01 in0.3 mm
04:30 PM 38.6°F3.7°C 32.0°F0.0°C 77% 10.0 mph WSW16.1 kmh WSW 21.0 mph33.8 kmh 29.69 in1005.4 mb 0.00 in0.0 mm 0.00 in/hr0.0 mm/hr 0.01 in0.3 mm
04:35 PM 38.2°F3.4°C 32.3°F0.2°C 79% 15.0 mph W24.1 kmh W 25.0 mph40.2 kmh 29.69 in1005.4 mb 0.00 in0.0 mm 0.00 in/hr0.0 mm/hr 0.01 in0.3 mm
04:40 PM 38.0°F3.3°C 32.4°F0.2°C 80% 7.0 mph W11.3 kmh W 15.0 mph24.1 kmh 29.70 in1005.8 mb 0.00 in0.0 mm 0.00 in/hr0.0 mm/hr 0.01 in0.3 mm
04:45 PM 37.9°F3.3°C 32.3°F0.2°C 80% 10.0 mph W16.1 kmh W 18.0 mph29.0 kmh 29.71 in1006.1 mb 0.00 in0.0 mm 0.00 in/hr0.0 mm/hr 0.01 in0.3 mm
04:50 PM 37.8°F3.2°C 32.5°F0.3°C 81% 7.0 mph W11.3 kmh W 22.0 mph35.4 kmh 29.72 in1006.4 mb 0.00 in0.0 mm 0.00 in/hr0.0 mm/hr 0.01 in0.3 mm
04:55 PM 37.4°F3.0°C 32.4°F0.2°C 82% 19.0 mph NW30.6 kmh NW 26.0 mph41.8 kmh 29.72 in1006.4 mb 0.00 in0.0 mm 0.00 in/hr0.0 mm/hr 0.01 in0.3 mm
05:00 PM 37.0°F2.8°C 32.0°F0.0°C 82% 6.0 mph WSW9.7 kmh WSW 15.0 mph24.1 kmh 29.73 in1006.8 mb 0.00 in0.0 mm 0.00 in/hr0.0 mm/hr 0.01 in0.3 mm
05:05 PM 36.7°F2.6°C 31.7°F-0.2°C 82% 13.0 mph WSW20.9 kmh WSW 25.0 mph40.2 kmh 29.74 in1007.1 mb 0.00 in0.0 mm 0.00 in/hr0.0 mm/hr 0.01 in0.3 mm
05:10 PM 36.5°F2.5°C 30.6°F-0.8°C 79% 7.0 mph W11.3 kmh W 19.0 mph30.6 kmh 29.75 in1007.5 mb 0.00 in0.0 mm 0.00 in/hr0.0 mm/hr 0.01 in0.3 mm
05:15 PM 36.4°F2.4°C 29.9°F-1.2°C 77% 14.0 mph W22.5 kmh W 32.0 mph51.5 kmh 29.76 in1007.8 mb 0.00 in0.0 mm 0.00 in/hr0.0 mm/hr 0.01 in0.3 mm
05:20 PM 36.2°F2.3°C 29.1°F-1.6°C 75% 17.0 mph W27.4 kmh W 24.0 mph38.6 kmh 29.76 in1007.8 mb 0.00 in0.0 mm 0.00 in/hr0.0 mm/hr 0.01 in0.3 mm
05:25 PM 36.2°F2.3°C 28.7°F-1.8°C 74% 7.0 mph W11.3 kmh W 24.0 mph38.6 kmh 29.77 in1008.1 mb 0.00 in0.0 mm 0.00 in/hr0.0 mm/hr 0.01 in0.3 mm
05:30 PM 36.1°F2.3°C 28.6°F-1.9°C 74% 22.0 mph WNW35.4 kmh WNW 27.0 mph43.5 kmh 29.77 in1008.1 mb 0.00 in0.0 mm 0.00 in/hr0.0 mm/hr 0.01 in0.3 mm
05:35 PM 36.1°F2.3°C 28.6°F-1.9°C 74% 15.0 mph W24.1 kmh W 27.0 mph43.5 kmh 29.78 in1008.5 mb 0.00 in0.0 mm 0.00 in/hr0.0 mm/hr 0.01 in0.3 mm
05:40 PM 36.1°F2.3°C 28.0°F-2.2°C 72% 14.0 mph W22.5 kmh W 18.0 mph29.0 kmh 29.78 in1008.5 mb 0.00 in0.0 mm 0.00 in/hr0.0 mm/hr 0.01 in0.3 mm
05:45 PM 36.0°F2.2°C 27.9°F-2.3°C 72% 4.0 mph W6.4 kmh W 21.0 mph33.8 kmh 29.79 in1008.8 mb 0.00 in0.0 mm 0.00 in/hr0.0 mm/hr 0.01 in0.3 mm
05:50 PM 35.7°F2.1°C 27.2°F-2.7°C 71% 13.0 mph W20.9 kmh W 16.0 mph25.7 kmh 29.78 in1008.5 mb 0.00 in0.0 mm 0.00 in/hr0.0 mm/hr 0.01 in0.3 mm
05:55 PM 35.4°F1.9°C 27.0°F-2.8°C 71% 10.0 mph NW16.1 kmh NW 20.0 mph32.2 kmh 29.78 in1008.5 mb 0.00 in0.0 mm 0.00 in/hr0.0 mm/hr 0.01 in0.3 mm
06:00 PM 35.2°F1.8°C 26.8°F-2.9°C 71% 11.0 mph NW17.7 kmh NW 16.0 mph25.7 kmh 29.78 in1008.5 mb 0.00 in0.0 mm 0.00 in/hr0.0 mm/hr 0.01 in0.3 mm
06:05 PM 35.1°F1.7°C 27.0°F-2.8°C 72% 3.0 mph NW4.8 kmh NW 16.0 mph25.7 kmh 29.79 in1008.8 mb 0.00 in0.0 mm 0.00 in/hr0.0 mm/hr 0.01 in0.3 mm
06:10 PM 35.1°F1.7°C 27.0°F-2.8°C 72% 5.0 mph NW8.0 kmh NW 17.0 mph27.4 kmh 29.80 in1009.1 mb 0.00 in0.0 mm 0.00 in/hr0.0 mm/hr 0.01 in0.3 mm
06:15 PM 35.1°F1.7°C 27.0°F-2.8°C 72% 10.0 mph WSW16.1 kmh WSW 18.0 mph29.0 kmh 29.80 in1009.1 mb 0.00 in0.0 mm 0.00 in/hr0.0 mm/hr 0.01 in0.3 mm
06:20 PM 35.1°F1.7°C 26.7°F-2.9°C 71% 9.0 mph W14.5 kmh W 15.0 mph24.1 kmh 29.81 in1009.5 mb 0.00 in0.0 mm 0.00 in/hr0.0 mm/hr 0.01 in0.3 mm
06:25 PM 35.0°F1.7°C 26.9°F-2.8°C 72% 9.0 mph WSW14.5 kmh WSW 23.0 mph37.0 kmh 29.81 in1009.5 mb 0.00 in0.0 mm 0.00 in/hr0.0 mm/hr 0.01 in0.3 mm
06:30 PM 34.4°F1.3°C 26.7°F-2.9°C 73% 19.0 mph W30.6 kmh W 24.0 mph38.6 kmh 29.81 in1009.5 mb 0.00 in0.0 mm 0.00 in/hr0.0 mm/hr 0.01 in0.3 mm
06:35 PM 34.2°F1.2°C 27.1°F-2.7°C 75% 9.0 mph W14.5 kmh W 26.0 mph41.8 kmh 29.82 in1009.8 mb 0.00 in0.0 mm 0.00 in/hr0.0 mm/hr 0.01 in0.3 mm
06:40 PM 33.9°F1.1°C 26.8°F-2.9°C 75% 7.0 mph W11.3 kmh W 11.0 mph17.7 kmh 29.82 in1009.8 mb 0.00 in0.0 mm 0.00 in/hr0.0 mm/hr 0.01 in0.3 mm
06:45 PM 33.7°F0.9°C 26.3°F-3.2°C 74% 10.0 mph NW16.1 kmh NW 21.0 mph33.8 kmh 29.82 in1009.8 mb 0.00 in0.0 mm 0.00 in/hr0.0 mm/hr 0.01 in0.3 mm
06:50 PM 33.7°F0.9°C 26.3°F-3.2°C 74% 6.0 mph W9.7 kmh W 13.0 mph20.9 kmh 29.82 in1009.8 mb 0.00 in0.0 mm 0.00 in/hr0.0 mm/hr 0.01 in0.3 mm
06:55 PM 33.5°F0.8°C 26.1°F-3.3°C 74% 5.0 mph WSW8.0 kmh WSW 15.0 mph24.1 kmh 29.83 in1010.2 mb 0.00 in0.0 mm 0.00 in/hr0.0 mm/hr 0.01 in0.3 mm
07:00 PM 33.3°F0.7°C 26.6°F-3.0°C 76% 9.0 mph W14.5 kmh W 12.0 mph19.3 kmh 29.83 in1010.2 mb 0.00 in0.0 mm 0.00 in/hr0.0 mm/hr 0.01 in0.3 mm
07:05 PM 33.1°F0.6°C 26.4°F-3.1°C 76% 4.0 mph WNW6.4 kmh WNW 19.0 mph30.6 kmh 29.83 in1010.2 mb 0.00 in0.0 mm 0.00 in/hr0.0 mm/hr 0.01 in0.3 mm
07:10 PM 33.1°F0.6°C 25.7°F-3.5°C 74% 7.0 mph W11.3 kmh W 13.0 mph20.9 kmh 29.84 in1010.5 mb 0.00 in0.0 mm 0.00 in/hr0.0 mm/hr 0.01 in0.3 mm
07:15 PM 33.0°F0.6°C 25.6°F-3.6°C 74% 8.0 mph WSW12.9 kmh WSW 26.0 mph41.8 kmh 29.84 in1010.5 mb 0.00 in0.0 mm 0.00 in/hr0.0 mm/hr 0.01 in0.3 mm
07:20 PM 32.9°F0.5°C 25.2°F-3.8°C 73% 22.0 mph WNW35.4 kmh WNW 25.0 mph40.2 kmh 29.85 in1010.8 mb 0.00 in0.0 mm 0.00 in/hr0.0 mm/hr 0.01 in0.3 mm
07:25 PM 32.9°F0.5°C 24.9°F-3.9°C 72% 16.0 mph WNW25.7 kmh WNW 25.0 mph40.2 kmh 29.85 in1010.8 mb 0.00 in0.0 mm 0.00 in/hr0.0 mm/hr 0.01 in0.3 mm
07:30 PM 32.8°F0.4°C 25.4°F-3.7°C 74% 6.0 mph WSW9.7 kmh WSW 14.0 mph22.5 kmh 29.85 in1010.8 mb 0.00 in0.0 mm 0.00 in/hr0.0 mm/hr 0.01 in0.3 mm
07:35 PM 32.6°F0.3°C 25.6°F-3.6°C 75% 16.0 mph WSW25.7 kmh WSW 23.0 mph37.0 kmh 29.85 in1010.8 mb 0.00 in0.0 mm 0.00 in/hr0.0 mm/hr 0.01 in0.3 mm
07:40 PM 32.3°F0.2°C 25.3°F-3.7°C 75% 13.0 mph NW20.9 kmh NW 13.0 mph20.9 kmh 29.85 in1010.8 mb 0.00 in0.0 mm 0.00 in/hr0.0 mm/hr 0.01 in0.3 mm
07:45 PM 32.1°F0.1°C 25.1°F-3.8°C 75% 12.0 mph W19.3 kmh W 24.0 mph38.6 kmh 29.86 in1011.2 mb 0.00 in0.0 mm 0.00 in/hr0.0 mm/hr 0.01 in0.3 mm
07:50 PM 32.0°F0.0°C 25.0°F-3.9°C 75% 9.0 mph WNW14.5 kmh WNW 18.0 mph29.0 kmh 29.86 in1011.2 mb 0.00 in0.0 mm 0.00 in/hr0.0 mm/hr 0.01 in0.3 mm
07:55 PM 31.9°F-0.1°C 25.2°F-3.8°C 76% 13.0 mph W20.9 kmh W 20.0 mph32.2 kmh 29.86 in1011.2 mb 0.00 in0.0 mm 0.00 in/hr0.0 mm/hr 0.01 in0.3 mm
08:00 PM 31.8°F-0.1°C 25.4°F-3.7°C 77% 3.0 mph W4.8 kmh W 9.0 mph14.5 kmh 29.87 in1011.5 mb 0.00 in0.0 mm 0.00 in/hr0.0 mm/hr 0.01 in0.3 mm
08:05 PM 31.6°F-0.2°C 25.5°F-3.6°C 78% 9.0 mph W14.5 kmh W 16.0 mph25.7 kmh 29.87 in1011.5 mb 0.00 in0.0 mm 0.00 in/hr0.0 mm/hr 0.01 in0.3 mm
08:10 PM 31.4°F-0.3°C 25.7°F-3.5°C 79% 10.0 mph WSW16.1 kmh WSW 15.0 mph24.1 kmh 29.87 in1011.5 mb 0.00 in0.0 mm 0.00 in/hr0.0 mm/hr 0.01 in0.3 mm
08:15 PM 31.1°F-0.5°C 25.7°F-3.5°C 80% 6.0 mph WSW9.7 kmh WSW 19.0 mph30.6 kmh 29.87 in1011.5 mb 0.00 in0.0 mm 0.00 in/hr0.0 mm/hr 0.01 in0.3 mm
08:20 PM 31.0°F-0.6°C 25.3°F-3.7°C 79% 10.0 mph NW16.1 kmh NW 12.0 mph19.3 kmh 29.87 in1011.5 mb 0.00 in0.0 mm 0.00 in/hr0.0 mm/hr 0.01 in0.3 mm
08:25 PM 30.9°F-0.6°C 25.2°F-3.8°C 79% 3.0 mph W4.8 kmh W 18.0 mph29.0 kmh 29.88 in1011.9 mb 0.00 in0.0 mm 0.00 in/hr0.0 mm/hr 0.01 in0.3 mm
08:30 PM 30.9°F-0.6°C 24.9°F-3.9°C 78% 5.0 mph W8.0 kmh W 6.0 mph9.7 kmh 29.88 in1011.9 mb 0.00 in0.0 mm 0.00 in/hr0.0 mm/hr 0.01 in0.3 mm
08:35 PM 30.8°F-0.7°C 24.5°F-4.2°C 77% 6.0 mph W9.7 kmh W 19.0 mph30.6 kmh 29.88 in1011.9 mb 0.00 in0.0 mm 0.00 in/hr0.0 mm/hr 0.01 in0.3 mm
08:40 PM 30.8°F-0.7°C 24.5°F-4.2°C 77% 18.0 mph W29.0 kmh W 18.0 mph29.0 kmh 29.88 in1011.9 mb 0.00 in0.0 mm 0.00 in/hr0.0 mm/hr 0.01 in0.3 mm
08:45 PM 30.7°F-0.7°C 24.4°F-4.2°C 77% 15.0 mph W24.1 kmh W 28.0 mph45.1 kmh 29.89 in1012.2 mb 0.00 in0.0 mm 0.00 in/hr0.0 mm/hr 0.01 in0.3 mm
08:50 PM 30.7°F-0.7°C 24.4°F-4.2°C 77% 7.0 mph W11.3 kmh W 17.0 mph27.4 kmh 29.89 in1012.2 mb 0.00 in0.0 mm 0.00 in/hr0.0 mm/hr 0.01 in0.3 mm
08:55 PM 30.8°F-0.7°C 24.8°F-4.0°C 78% 20.0 mph WNW32.2 kmh WNW 22.0 mph35.4 kmh 29.89 in1012.2 mb 0.00 in0.0 mm 0.00 in/hr0.0 mm/hr 0.01 in0.3 mm
09:00 PM 30.8°F-0.7°C 24.8°F-4.0°C 78% 15.0 mph W24.1 kmh W 15.0 mph24.1 kmh 29.89 in1012.2 mb 0.00 in0.0 mm 0.00 in/hr0.0 mm/hr 0.01 in0.3 mm
09:05 PM 30.6°F-0.8°C 24.9°F-3.9°C 79% 7.0 mph WSW11.3 kmh WSW 21.0 mph33.8 kmh 29.89 in1012.2 mb 0.00 in0.0 mm 0.00 in/hr0.0 mm/hr 0.01 in0.3 mm
09:10 PM 30.5°F-0.8°C 24.8°F-4.0°C 79% 5.0 mph WSW8.0 kmh WSW 15.0 mph24.1 kmh 29.89 in1012.2 mb 0.00 in0.0 mm 0.00 in/hr0.0 mm/hr 0.01 in0.3 mm
09:15 PM 30.4°F-0.9°C 24.7°F-4.1°C 79% 11.0 mph W17.7 kmh W 23.0 mph37.0 kmh 29.89 in1012.2 mb 0.00 in0.0 mm 0.00 in/hr0.0 mm/hr 0.01 in0.3 mm
09:20 PM 30.5°F-0.8°C 24.8°F-4.0°C 79% 5.0 mph WNW8.0 kmh WNW 8.0 mph12.9 kmh 29.89 in1012.2 mb 0.00 in0.0 mm 0.00 in/hr0.0 mm/hr 0.01 in0.3 mm
09:25 PM 30.4°F-0.9°C 24.7°F-4.1°C 79% 13.0 mph NW20.9 kmh NW 19.0 mph30.6 kmh 29.90 in1012.5 mb 0.00 in0.0 mm 0.00 in/hr0.0 mm/hr 0.01 in0.3 mm
09:30 PM 30.1°F-1.1°C 24.7°F-4.1°C 80% 4.0 mph WSW6.4 kmh WSW 13.0 mph20.9 kmh 29.90 in1012.5 mb 0.00 in0.0 mm 0.00 in/hr0.0 mm/hr 0.01 in0.3 mm
09:35 PM 30.0°F-1.1°C 24.9°F-3.9°C 81% 4.0 mph WNW6.4 kmh WNW 18.0 mph29.0 kmh 29.90 in1012.5 mb 0.00 in0.0 mm 0.00 in/hr0.0 mm/hr 0.01 in0.3 mm
09:40 PM 29.9°F-1.2°C 25.1°F-3.8°C 82% 5.0 mph SW8.0 kmh SW 10.0 mph16.1 kmh 29.90 in1012.5 mb 0.00 in0.0 mm 0.00 in/hr0.0 mm/hr 0.01 in0.3 mm
09:45 PM 29.9°F-1.2°C 25.4°F-3.7°C 83% 4.0 mph SW6.4 kmh SW 14.0 mph22.5 kmh 29.90 in1012.5 mb 0.00 in0.0 mm 0.00 in/hr0.0 mm/hr 0.01 in0.3 mm
09:50 PM 29.7°F-1.3°C 25.2°F-3.8°C 83% 7.0 mph SW11.3 kmh SW 7.0 mph11.3 kmh 29.90 in1012.5 mb 0.00 in0.0 mm 0.00 in/hr0.0 mm/hr 0.01 in0.3 mm
09:55 PM 29.7°F-1.3°C 25.2°F-3.8°C 83% 5.0 mph WSW8.0 kmh WSW 14.0 mph22.5 kmh 29.90 in1012.5 mb 0.00 in0.0 mm 0.00 in/hr0.0 mm/hr 0.01 in0.3 mm
10:00 PM 29.8°F-1.2°C 25.3°F-3.7°C 83% 6.0 mph W9.7 kmh W 9.0 mph14.5 kmh 29.90 in1012.5 mb 0.00 in0.0 mm 0.00 in/hr0.0 mm/hr 0.01 in0.3 mm
10:05 PM 29.9°F-1.2°C 25.4°F-3.7°C 83% 5.0 mph WSW8.0 kmh WSW 17.0 mph27.4 kmh 29.90 in1012.5 mb 0.00 in0.0 mm 0.00 in/hr0.0 mm/hr 0.01 in0.3 mm
10:10 PM 30.1°F-1.1°C 25.6°F-3.6°C 83% 16.0 mph W25.7 kmh W 16.0 mph25.7 kmh 29.90 in1012.5 mb 0.00 in0.0 mm 0.00 in/hr0.0 mm/hr 0.01 in0.3 mm
10:15 PM 30.2°F-1.0°C 25.4°F-3.7°C 82% 9.0 mph SW14.5 kmh SW 16.0 mph25.7 kmh 29.90 in1012.5 mb 0.00 in0.0 mm 0.00 in/hr0.0 mm/hr 0.01 in0.3 mm
10:20 PM 30.2°F-1.0°C 25.4°F-3.7°C 82% 2.0 mph W3.2 kmh W 7.0 mph11.3 kmh 29.90 in1012.5 mb 0.00 in0.0 mm 0.00 in/hr0.0 mm/hr 0.01 in0.3 mm
10:25 PM 30.2°F-1.0°C 25.4°F-3.7°C 82% 3.0 mph SW4.8 kmh SW 12.0 mph19.3 kmh 29.90 in1012.5 mb 0.00 in0.0 mm 0.00 in/hr0.0 mm/hr 0.01 in0.3 mm
10:30 PM 30.1°F-1.1°C 25.3°F-3.7°C 82% 4.0 mph W6.4 kmh W 7.0 mph11.3 kmh 29.90 in1012.5 mb 0.00 in0.0 mm 0.00 in/hr0.0 mm/hr 0.01 in0.3 mm
10:35 PM 30.1°F-1.1°C 25.6°F-3.6°C 83% 6.0 mph SW9.7 kmh SW 15.0 mph24.1 kmh 29.90 in1012.5 mb 0.00 in0.0 mm 0.00 in/hr0.0 mm/hr 0.01 in0.3 mm
10:40 PM 30.1°F-1.1°C 25.6°F-3.6°C 83% 1.0 mph WSW1.6 kmh WSW 12.0 mph19.3 kmh 29.89 in1012.2 mb 0.00 in0.0 mm 0.00 in/hr0.0 mm/hr 0.01 in0.3 mm
10:45 PM 29.9°F-1.2°C 25.7°F-3.5°C 84% 5.0 mph WSW8.0 kmh WSW 13.0 mph20.9 kmh 29.89 in1012.2 mb 0.00 in0.0 mm 0.00 in/hr0.0 mm/hr 0.01 in0.3 mm
10:50 PM 29.8°F-1.2°C 25.9°F-3.4°C 85% 5.0 mph WNW8.0 kmh WNW 7.0 mph11.3 kmh 29.89 in1012.2 mb 0.00 in0.0 mm 0.00 in/hr0.0 mm/hr 0.01 in0.3 mm
10:55 PM 29.7°F-1.3°C 25.8°F-3.4°C 85% 9.0 mph WSW14.5 kmh WSW 15.0 mph24.1 kmh 29.89 in1012.2 mb 0.00 in0.0 mm 0.00 in/hr0.0 mm/hr 0.01 in0.3 mm
11:00 PM 29.8°F-1.2°C 25.9°F-3.4°C 85% 5.0 mph WNW8.0 kmh WNW 13.0 mph20.9 kmh 29.89 in1012.2 mb 0.00 in0.0 mm 0.00 in/hr0.0 mm/hr 0.01 in0.3 mm
11:05 PM 29.9°F-1.2°C 25.7°F-3.5°C 84% 4.0 mph SW6.4 kmh SW 19.0 mph30.6 kmh 29.89 in1012.2 mb 0.00 in0.0 mm 0.00 in/hr0.0 mm/hr 0.01 in0.3 mm
11:10 PM 30.0°F-1.1°C 25.5°F-3.6°C 83% 6.0 mph WSW9.7 kmh WSW 6.0 mph9.7 kmh 29.89 in1012.2 mb 0.00 in0.0 mm 0.00 in/hr0.0 mm/hr 0.01 in0.3 mm
11:15 PM 30.2°F-1.0°C 25.7°F-3.5°C 83% 4.0 mph SW6.4 kmh SW 20.0 mph32.2 kmh 29.89 in1012.2 mb 0.00 in0.0 mm 0.00 in/hr0.0 mm/hr 0.01 in0.3 mm
11:20 PM 30.3°F-0.9°C 25.5°F-3.6°C 82% 6.0 mph WSW9.7 kmh WSW 10.0 mph16.1 kmh 29.89 in1012.2 mb 0.00 in0.0 mm 0.00 in/hr0.0 mm/hr 0.01 in0.3 mm
11:30 PM 30.3°F-0.9°C 25.8°F-3.4°C 83% 1.0 mph W1.6 kmh W 10.0 mph16.1 kmh 29.89 in1012.2 mb 0.00 in0.0 mm 0.00 in/hr0.0 mm/hr 0.01 in0.3 mm
11:35 PM 30.2°F-1.0°C 25.7°F-3.5°C 83% 10.0 mph WSW16.1 kmh WSW 13.0 mph20.9 kmh 29.89 in1012.2 mb 0.00 in0.0 mm 0.00 in/hr0.0 mm/hr 0.01 in0.3 mm
11:40 PM 30.2°F-1.0°C 25.7°F-3.5°C 83% 2.0 mph WSW3.2 kmh WSW 12.0 mph19.3 kmh 29.89 in1012.2 mb 0.00 in0.0 mm 0.00 in/hr0.0 mm/hr 0.01 in0.3 mm
11:45 PM 30.2°F-1.0°C 26.0°F-3.3°C 84% 3.0 mph SW4.8 kmh SW 14.0 mph22.5 kmh 29.89 in1012.2 mb 0.00 in0.0 mm 0.00 in/hr0.0 mm/hr 0.01 in0.3 mm
11:50 PM 30.2°F-1.0°C 26.0°F-3.3°C 84% 4.0 mph W6.4 kmh W 5.0 mph8.0 kmh 29.89 in1012.2 mb 0.00 in0.0 mm 0.00 in/hr0.0 mm/hr 0.01 in0.3 mm
11:55 PM 30.2°F-1.0°C 26.0°F-3.3°C 84% 4.0 mph W6.4 kmh W 12.0 mph19.3 kmh 29.89 in1012.2 mb 0.00 in0.0 mm 0.00 in/hr0.0 mm/hr 0.01 in0.3 mm